首页
METAR-TAF:

METAR-TAF

机场 :

瓜亞基爾, 厄瓜多尔

纬度: 02-09S, 经度: 079-53W, 海拔: 4米

当前天气观测

该预报发布于18分钟前的14:00 UTC
风速4节,风向东北,在东转东北之间变化
温度 31°C
湿度 63%
气压 1010 hPa
能见度10公里或以上
少量云层高于3000英尺

METAR: SEGU 141400Z 04004KT 360V060 9999 FEW030 31/23 Q1010 NOSIG RMK A2983

时间: 09:18 (14:18 UTC)

预报

该预报发布于3小时和38分钟前的10:40 UTC
预报有效从14日的 12点(UTC)到 15日的 12点(UTC)
风速5节,风向南转西南
能见度10公里或以上
散云层高于2300英尺
多云层高于10000英尺
成为
从 14日的 17点(UTC)到 14日的 19点(UTC)
风速6节,风向南转南东
多云层高于2300英尺
多云层高于10000英尺
成为
从 15日的 00点(UTC)到 15日的 02点(UTC)
风速6节,风向南转西南
散云层高于2300英尺
多云层高于10000英尺

TAF: SEGU 141040Z 1412/1512 20005KT 9999 SCT023 BKN100 BECMG 1417/1419 16006KT BKN023 BKN100 BECMG 1500/1502 21006KT SCT023 BKN100 TX33/1420Z TN26/1510Z

超过4000个机场的气象观测和天气预报(METAR&TAF报告)。

可查询的气象台以黄色和红色小点在地图上表示。

将鼠标移到小点上方,可查看气象台名称。

然后点击查看天气观测和预报。

如需切换地图:点击带黑十字的绿色按钮放大地图;点击带横线的绿色按钮缩小地图;或者点击绿色箭头查看邻近地区的地图。


METAR-TAF: